sensor_id;sensor_type;location;lat;lon;timestamp;P1;durP1;ratioP1;P2;durP2;ratioP2
6823;SDS011;58633;49.470;11.004;2023-07-09T00:00:04;7.82;;;6.70;;
6823;SDS011;58633;49.470;11.004;2023-07-09T00:02:39;9.13;;;6.72;;
6823;SDS011;58633;49.470;11.004;2023-07-09T00:05:04;10.10;;;7.00;;
6823;SDS011;58633;49.470;11.004;2023-07-09T00:07:33;10.43;;;6.75;;
6823;SDS011;58633;49.470;11.004;2023-07-09T00:09:59;8.75;;;6.70;;
6823;SDS011;58633;49.470;11.004;2023-07-09T00:12:25;8.85;;;7.00;;
6823;SDS011;58633;49.470;11.004;2023-07-09T00:14:51;9.93;;;7.13;;
6823;SDS011;58633;49.470;11.004;2023-07-09T00:17:26;9.35;;;7.07;;
6823;SDS011;58633;49.470;11.004;2023-07-09T00:19:53;10.70;;;6.50;;
6823;SDS011;58633;49.470;11.004;2023-07-09T00:22:19;11.95;;;7.55;;
6823;SDS011;58633;49.470;11.004;2023-07-09T00:24:45;9.90;;;7.47;;
6823;SDS011;58633;49.470;11.004;2023-07-09T00:27:16;8.98;;;7.03;;
6823;SDS011;58633;49.470;11.004;2023-07-09T00:29:44;12.05;;;6.60;;
6823;SDS011;58633;49.470;11.004;2023-07-09T00:32:13;9.00;;;6.70;;
6823;SDS011;58633;49.470;11.004;2023-07-09T00:34:41;7.53;;;6.72;;
6823;SDS011;58633;49.470;11.004;2023-07-09T00:37:13;9.77;;;7.30;;
6823;SDS011;58633;49.470;11.004;2023-07-09T00:39:41;7.68;;;6.88;;
6823;SDS011;58633;49.470;11.004;2023-07-09T00:42:11;10.80;;;6.80;;
6823;SDS011;58633;49.470;11.004;2023-07-09T00:44:42;11.93;;;6.50;;
6823;SDS011;58633;49.470;11.004;2023-07-09T00:47:33;8.48;;;6.78;;
6823;SDS011;58633;49.470;11.004;2023-07-09T00:50:21;9.43;;;6.55;;
6823;SDS011;58633;49.470;11.004;2023-07-09T00:52:59;8.63;;;6.53;;
6823;SDS011;58633;49.470;11.004;2023-07-09T00:55:32;7.40;;;6.35;;
6823;SDS011;58633;49.470;11.004;2023-07-09T00:58:03;9.35;;;6.72;;
6823;SDS011;58633;49.470;11.004;2023-07-09T01:00:37;8.88;;;6.13;;
6823;SDS011;58633;49.470;11.004;2023-07-09T01:03:17;9.18;;;6.57;;
6823;SDS011;58633;49.470;11.004;2023-07-09T01:05:50;7.97;;;7.00;;
6823;SDS011;58633;49.470;11.004;2023-07-09T01:08:20;9.85;;;6.45;;
6823;SDS011;58633;49.470;11.004;2023-07-09T01:10:45;9.30;;;6.35;;
6823;SDS011;58633;49.470;11.004;2023-07-09T01:13:11;7.97;;;6.78;;
6823;SDS011;58633;49.470;11.004;2023-07-09T01:15:36;8.85;;;6.72;;
6823;SDS011;58633;49.470;11.004;2023-07-09T01:18:03;9.75;;;6.82;;
6823;SDS011;58633;49.470;11.004;2023-07-09T01:20:29;9.57;;;6.22;;
6823;SDS011;58633;49.470;11.004;2023-07-09T01:22:56;8.32;;;6.93;;
6823;SDS011;58633;49.470;11.004;2023-07-09T01:25:25;11.50;;;7.20;;
6823;SDS011;58633;49.470;11.004;2023-07-09T01:27:52;8.55;;;6.47;;
6823;SDS011;58633;49.470;11.004;2023-07-09T01:30:24;8.25;;;6.90;;
6823;SDS011;58633;49.470;11.004;2023-07-09T01:32:55;8.35;;;6.03;;
6823;SDS011;58633;49.470;11.004;2023-07-09T01:35:22;8.57;;;6.60;;
6823;SDS011;58633;49.470;11.004;2023-07-09T01:37:49;9.57;;;6.30;;
6823;SDS011;58633;49.470;11.004;2023-07-09T01:40:17;8.48;;;6.47;;
6823;SDS011;58633;49.470;11.004;2023-07-09T01:42:44;7.47;;;6.15;;
6823;SDS011;58633;49.470;11.004;2023-07-09T01:45:10;8.02;;;6.38;;
6823;SDS011;58633;49.470;11.004;2023-07-09T01:47:37;7.57;;;6.78;;
6823;SDS011;58633;49.470;11.004;2023-07-09T01:50:04;7.90;;;6.72;;
6823;SDS011;58633;49.470;11.004;2023-07-09T01:52:33;7.03;;;6.25;;
6823;SDS011;58633;49.470;11.004;2023-07-09T01:54:59;9.10;;;6.72;;
6823;SDS011;58633;49.470;11.004;2023-07-09T01:57:25;6.55;;;5.95;;
6823;SDS011;58633;49.470;11.004;2023-07-09T01:59:58;6.60;;;5.95;;
6823;SDS011;58633;49.470;11.004;2023-07-09T02:02:25;8.30;;;6.63;;
6823;SDS011;58633;49.470;11.004;2023-07-09T02:04:53;7.53;;;6.40;;
6823;SDS011;58633;49.470;11.004;2023-07-09T02:07:20;9.95;;;6.80;;
6823;SDS011;58633;49.470;11.004;2023-07-09T02:09:47;8.65;;;6.72;;
6823;SDS011;58633;49.470;11.004;2023-07-09T02:12:13;9.27;;;7.10;;
6823;SDS011;58633;49.470;11.004;2023-07-09T02:14:39;11.18;;;6.90;;
6823;SDS011;58633;49.470;11.004;2023-07-09T02:17:06;10.50;;;6.72;;
6823;SDS011;58633;49.470;11.004;2023-07-09T02:19:33;8.30;;;6.20;;
6823;SDS011;58633;49.470;11.004;2023-07-09T02:21:58;7.82;;;6.97;;
6823;SDS011;58633;49.470;11.004;2023-07-09T02:24:24;10.75;;;6.80;;
6823;SDS011;58633;49.470;11.004;2023-07-09T02:26:51;8.75;;;6.40;;
6823;SDS011;58633;49.470;11.004;2023-07-09T02:29:17;8.13;;;7.00;;
6823;SDS011;58633;49.470;11.004;2023-07-09T02:31:44;9.68;;;6.78;;
6823;SDS011;58633;49.470;11.004;2023-07-09T02:34:10;8.25;;;6.97;;
6823;SDS011;58633;49.470;11.004;2023-07-09T02:36:35;10.52;;;6.95;;
6823;SDS011;58633;49.470;11.004;2023-07-09T02:39:01;13.02;;;7.05;;
6823;SDS011;58633;49.470;11.004;2023-07-09T02:41:27;10.45;;;7.20;;
6823;SDS011;58633;49.470;11.004;2023-07-09T02:43:52;10.15;;;7.25;;
6823;SDS011;58633;49.470;11.004;2023-07-09T02:46:17;8.10;;;7.00;;
6823;SDS011;58633;49.470;11.004;2023-07-09T02:48:43;9.20;;;6.47;;
6823;SDS011;58633;49.470;11.004;2023-07-09T02:51:09;9.07;;;6.60;;
6823;SDS011;58633;49.470;11.004;2023-07-09T02:53:34;11.85;;;6.90;;
6823;SDS011;58633;49.470;11.004;2023-07-09T02:55:59;8.70;;;6.57;;
6823;SDS011;58633;49.470;11.004;2023-07-09T02:58:26;9.18;;;7.25;;
6823;SDS011;58633;49.470;11.004;2023-07-09T03:00:51;8.52;;;6.80;;
6823;SDS011;58633;49.470;11.004;2023-07-09T03:03:18;9.20;;;6.78;;
6823;SDS011;58633;49.470;11.004;2023-07-09T03:05:45;9.57;;;6.93;;
6823;SDS011;58633;49.470;11.004;2023-07-09T03:08:11;10.90;;;6.45;;
6823;SDS011;58633;49.470;11.004;2023-07-09T03:10:36;7.47;;;6.50;;
6823;SDS011;58633;49.470;11.004;2023-07-09T03:13:02;11.68;;;7.13;;
6823;SDS011;58633;49.470;11.004;2023-07-09T03:15:27;9.05;;;6.85;;
6823;SDS011;58633;49.470;11.004;2023-07-09T03:17:53;8.02;;;6.35;;
6823;SDS011;58633;49.470;11.004;2023-07-09T03:20:18;10.70;;;7.20;;
6823;SDS011;58633;49.470;11.004;2023-07-09T03:22:44;9.13;;;7.00;;
6823;SDS011;58633;49.470;11.004;2023-07-09T03:25:09;9.18;;;7.03;;
6823;SDS011;58633;49.470;11.004;2023-07-09T03:27:35;10.57;;;6.88;;
6823;SDS011;58633;49.470;11.004;2023-07-09T03:30:01;10.90;;;7.28;;
6823;SDS011;58633;49.470;11.004;2023-07-09T03:32:27;7.65;;;6.82;;
6823;SDS011;58633;49.470;11.004;2023-07-09T03:34:52;9.77;;;7.13;;
6823;SDS011;58633;49.470;11.004;2023-07-09T03:37:18;9.18;;;6.93;;
6823;SDS011;58633;49.470;11.004;2023-07-09T03:39:45;9.15;;;7.22;;
6823;SDS011;58633;49.470;11.004;2023-07-09T03:42:11;10.40;;;7.20;;
6823;SDS011;58633;49.470;11.004;2023-07-09T03:44:36;9.38;;;7.30;;
6823;SDS011;58633;49.470;11.004;2023-07-09T03:47:02;11.10;;;7.72;;
6823;SDS011;58633;49.470;11.004;2023-07-09T03:49:28;8.82;;;7.15;;
6823;SDS011;58633;49.470;11.004;2023-07-09T03:51:54;8.80;;;6.93;;
6823;SDS011;58633;49.470;11.004;2023-07-09T03:54:19;10.02;;;7.55;;
6823;SDS011;58633;49.470;11.004;2023-07-09T03:56:45;8.75;;;6.82;;
6823;SDS011;58633;49.470;11.004;2023-07-09T03:59:10;10.73;;;6.95;;
6823;SDS011;58633;49.470;11.004;2023-07-09T04:01:36;10.23;;;7.53;;
6823;SDS011;58633;49.470;11.004;2023-07-09T04:04:02;9.23;;;7.18;;
6823;SDS011;58633;49.470;11.004;2023-07-09T04:06:28;9.07;;;7.05;;
6823;SDS011;58633;49.470;11.004;2023-07-09T04:08:53;9.18;;;6.95;;
6823;SDS011;58633;49.470;11.004;2023-07-09T04:11:19;9.48;;;7.05;;
6823;SDS011;58633;49.470;11.004;2023-07-09T04:13:45;11.05;;;7.60;;
6823;SDS011;58633;49.470;11.004;2023-07-09T04:16:10;9.40;;;6.85;;
6823;SDS011;58633;49.470;11.004;2023-07-09T04:18:37;9.80;;;7.53;;
6823;SDS011;58633;49.470;11.004;2023-07-09T04:21:02;8.98;;;6.75;;
6823;SDS011;58633;49.470;11.004;2023-07-09T04:23:28;9.65;;;7.18;;
6823;SDS011;58633;49.470;11.004;2023-07-09T04:25:54;8.63;;;6.75;;
6823;SDS011;58633;49.470;11.004;2023-07-09T04:28:19;10.00;;;7.07;;
6823;SDS011;58633;49.470;11.004;2023-07-09T04:30:46;7.95;;;6.63;;
6823;SDS011;58633;49.470;11.004;2023-07-09T04:33:15;7.93;;;6.78;;
6823;SDS011;58633;49.470;11.004;2023-07-09T04:35:43;9.23;;;6.95;;
6823;SDS011;58633;49.470;11.004;2023-07-09T04:38:12;8.35;;;6.78;;
6823;SDS011;58633;49.470;11.004;2023-07-09T04:40:38;8.40;;;6.80;;
6823;SDS011;58633;49.470;11.004;2023-07-09T04:43:04;11.85;;;6.72;;
6823;SDS011;58633;49.470;11.004;2023-07-09T04:45:30;9.30;;;6.97;;
6823;SDS011;58633;49.470;11.004;2023-07-09T04:47:55;6.93;;;6.13;;
6823;SDS011;58633;49.470;11.004;2023-07-09T04:50:21;9.52;;;6.85;;
6823;SDS011;58633;49.470;11.004;2023-07-09T04:52:47;9.35;;;7.38;;
6823;SDS011;58633;49.470;11.004;2023-07-09T04:55:12;9.35;;;6.47;;
6823;SDS011;58633;49.470;11.004;2023-07-09T04:57:38;9.73;;;7.40;;
6823;SDS011;58633;49.470;11.004;2023-07-09T05:00:04;9.15;;;6.75;;
6823;SDS011;58633;49.470;11.004;2023-07-09T05:02:31;9.63;;;6.85;;
6823;SDS011;58633;49.470;11.004;2023-07-09T05:04:57;9.35;;;7.05;;
6823;SDS011;58633;49.470;11.004;2023-07-09T05:07:22;8.80;;;6.88;;
6823;SDS011;58633;49.470;11.004;2023-07-09T05:09:48;9.65;;;6.82;;
6823;SDS011;58633;49.470;11.004;2023-07-09T05:12:14;7.80;;;6.45;;
6823;SDS011;58633;49.470;11.004;2023-07-09T05:14:39;8.13;;;6.45;;
6823;SDS011;58633;49.470;11.004;2023-07-09T05:17:05;7.28;;;6.35;;
6823;SDS011;58633;49.470;11.004;2023-07-09T05:19:31;9.57;;;6.80;;
6823;SDS011;58633;49.470;11.004;2023-07-09T05:21:57;8.32;;;6.75;;
6823;SDS011;58633;49.470;11.004;2023-07-09T05:24:23;8.85;;;6.82;;
6823;SDS011;58633;49.470;11.004;2023-07-09T05:26:49;8.63;;;6.63;;
6823;SDS011;58633;49.470;11.004;2023-07-09T05:29:14;8.35;;;6.55;;
6823;SDS011;58633;49.470;11.004;2023-07-09T05:31:40;9.70;;;6.75;;
6823;SDS011;58633;49.470;11.004;2023-07-09T05:34:07;10.18;;;6.55;;
6823;SDS011;58633;49.470;11.004;2023-07-09T05:36:32;10.05;;;6.60;;
6823;SDS011;58633;49.470;11.004;2023-07-09T05:38:58;9.35;;;6.68;;
6823;SDS011;58633;49.470;11.004;2023-07-09T05:41:24;8.50;;;6.45;;
6823;SDS011;58633;49.470;11.004;2023-07-09T05:43:50;8.50;;;6.60;;
6823;SDS011;58633;49.470;11.004;2023-07-09T05:46:16;8.73;;;6.53;;
6823;SDS011;58633;49.470;11.004;2023-07-09T05:48:43;16.48;;;6.78;;
6823;SDS011;58633;49.470;11.004;2023-07-09T05:51:08;10.82;;;6.43;;
6823;SDS011;58633;49.470;11.004;2023-07-09T05:53:35;8.25;;;6.70;;
6823;SDS011;58633;49.470;11.004;2023-07-09T05:56:01;9.55;;;6.55;;
6823;SDS011;58633;49.470;11.004;2023-07-09T05:58:26;9.93;;;6.88;;
6823;SDS011;58633;49.470;11.004;2023-07-09T06:00:53;11.40;;;6.85;;
6823;SDS011;58633;49.470;11.004;2023-07-09T06:03:21;6.88;;;6.18;;
6823;SDS011;58633;49.470;11.004;2023-07-09T06:05:47;8.65;;;6.50;;
6823;SDS011;58633;49.470;11.004;2023-07-09T06:08:17;8.77;;;7.57;;
6823;SDS011;58633;49.470;11.004;2023-07-09T06:10:50;7.28;;;6.47;;
6823;SDS011;58633;49.470;11.004;2023-07-09T06:13:23;7.25;;;6.50;;
6823;SDS011;58633;49.470;11.004;2023-07-09T06:15:50;10.10;;;6.82;;
6823;SDS011;58633;49.470;11.004;2023-07-09T06:18:17;9.05;;;7.40;;
6823;SDS011;58633;49.470;11.004;2023-07-09T06:20:54;15.95;;;6.60;;
6823;SDS011;58633;49.470;11.004;2023-07-09T06:23:20;7.57;;;6.40;;
6823;SDS011;58633;49.470;11.004;2023-07-09T06:25:46;8.00;;;6.68;;
6823;SDS011;58633;49.470;11.004;2023-07-09T06:28:16;8.45;;;6.50;;
6823;SDS011;58633;49.470;11.004;2023-07-09T06:30:43;11.98;;;6.60;;
6823;SDS011;58633;49.470;11.004;2023-07-09T06:33:10;8.75;;;6.63;;
6823;SDS011;58633;49.470;11.004;2023-07-09T06:35:37;7.47;;;5.82;;
6823;SDS011;58633;49.470;11.004;2023-07-09T06:38:04;10.75;;;6.28;;
6823;SDS011;58633;49.470;11.004;2023-07-09T06:40:30;10.45;;;6.45;;
6823;SDS011;58633;49.470;11.004;2023-07-09T06:42:55;8.60;;;6.03;;
6823;SDS011;58633;49.470;11.004;2023-07-09T06:45:22;8.13;;;6.30;;
6823;SDS011;58633;49.470;11.004;2023-07-09T06:47:48;10.00;;;6.20;;
6823;SDS011;58633;49.470;11.004;2023-07-09T06:50:14;12.20;;;6.03;;
6823;SDS011;58633;49.470;11.004;2023-07-09T06:52:40;5.97;;;5.47;;
6823;SDS011;58633;49.470;11.004;2023-07-09T06:55:06;7.80;;;5.85;;
6823;SDS011;58633;49.470;11.004;2023-07-09T06:57:32;8.43;;;6.03;;
6823;SDS011;58633;49.470;11.004;2023-07-09T06:59:58;7.65;;;5.50;;
6823;SDS011;58633;49.470;11.004;2023-07-09T07:02:24;8.02;;;5.80;;
6823;SDS011;58633;49.470;11.004;2023-07-09T07:04:49;8.13;;;5.85;;
6823;SDS011;58633;49.470;11.004;2023-07-09T07:07:15;6.70;;;5.35;;
6823;SDS011;58633;49.470;11.004;2023-07-09T07:09:40;7.03;;;5.68;;
6823;SDS011;58633;49.470;11.004;2023-07-09T07:12:06;6.13;;;5.18;;
6823;SDS011;58633;49.470;11.004;2023-07-09T07:14:32;6.53;;;5.32;;
6823;SDS011;58633;49.470;11.004;2023-07-09T07:16:57;7.00;;;5.30;;
6823;SDS011;58633;49.470;11.004;2023-07-09T07:19:23;6.55;;;5.50;;
6823;SDS011;58633;49.470;11.004;2023-07-09T07:21:48;9.23;;;6.03;;
6823;SDS011;58633;49.470;11.004;2023-07-09T07:24:14;7.55;;;5.22;;
6823;SDS011;58633;49.470;11.004;2023-07-09T07:26:40;8.20;;;5.90;;
6823;SDS011;58633;49.470;11.004;2023-07-09T07:29:05;8.32;;;5.60;;
6823;SDS011;58633;49.470;11.004;2023-07-09T07:31:31;7.93;;;5.75;;
6823;SDS011;58633;49.470;11.004;2023-07-09T07:33:56;6.13;;;5.45;;
6823;SDS011;58633;49.470;11.004;2023-07-09T07:36:22;6.10;;;5.43;;
6823;SDS011;58633;49.470;11.004;2023-07-09T07:38:48;7.38;;;4.88;;
6823;SDS011;58633;49.470;11.004;2023-07-09T07:41:13;6.10;;;4.93;;
6823;SDS011;58633;49.470;11.004;2023-07-09T07:43:39;6.55;;;4.82;;
6823;SDS011;58633;49.470;11.004;2023-07-09T07:46:05;5.72;;;4.95;;
6823;SDS011;58633;49.470;11.004;2023-07-09T07:48:32;6.75;;;5.30;;
6823;SDS011;58633;49.470;11.004;2023-07-09T07:50:58;6.40;;;4.60;;
6823;SDS011;58633;49.470;11.004;2023-07-09T07:53:26;9.65;;;5.35;;
6823;SDS011;58633;49.470;11.004;2023-07-09T07:55:54;6.50;;;4.95;;
6823;SDS011;58633;49.470;11.004;2023-07-09T07:58:21;6.60;;;5.03;;
6823;SDS011;58633;49.470;11.004;2023-07-09T08:00:47;5.40;;;4.72;;
6823;SDS011;58633;49.470;11.004;2023-07-09T08:03:12;6.93;;;4.32;;
6823;SDS011;58633;49.470;11.004;2023-07-09T08:05:38;9.15;;;4.72;;
6823;SDS011;58633;49.470;11.004;2023-07-09T08:08:04;6.50;;;5.20;;
6823;SDS011;58633;49.470;11.004;2023-07-09T08:10:29;10.65;;;5.30;;
6823;SDS011;58633;49.470;11.004;2023-07-09T08:12:55;7.28;;;5.22;;
6823;SDS011;58633;49.470;11.004;2023-07-09T08:15:22;6.70;;;4.68;;
6823;SDS011;58633;49.470;11.004;2023-07-09T08:17:49;6.43;;;4.57;;
6823;SDS011;58633;49.470;11.004;2023-07-09T08:20:15;4.43;;;3.97;;
6823;SDS011;58633;49.470;11.004;2023-07-09T08:22:40;5.82;;;4.20;;
6823;SDS011;58633;49.470;11.004;2023-07-09T08:25:06;5.68;;;4.13;;
6823;SDS011;58633;49.470;11.004;2023-07-09T08:27:32;7.90;;;4.63;;
6823;SDS011;58633;49.470;11.004;2023-07-09T08:29:57;5.40;;;4.40;;
6823;SDS011;58633;49.470;11.004;2023-07-09T08:32:23;4.18;;;3.80;;
6823;SDS011;58633;49.470;11.004;2023-07-09T08:34:49;4.68;;;3.88;;
6823;SDS011;58633;49.470;11.004;2023-07-09T08:37:14;5.55;;;4.00;;
6823;SDS011;58633;49.470;11.004;2023-07-09T08:39:40;4.47;;;3.65;;
6823;SDS011;58633;49.470;11.004;2023-07-09T08:42:16;4.82;;;3.72;;
6823;SDS011;58633;49.470;11.004;2023-07-09T08:45:17;6.25;;;3.90;;
6823;SDS011;58633;49.470;11.004;2023-07-09T08:48:04;4.10;;;3.60;;
6823;SDS011;58633;49.470;11.004;2023-07-09T08:50:37;4.18;;;3.60;;
6823;SDS011;58633;49.470;11.004;2023-07-09T08:53:09;4.70;;;3.90;;
6823;SDS011;58633;49.470;11.004;2023-07-09T08:55:44;4.95;;;3.40;;
6823;SDS011;58633;49.470;11.004;2023-07-09T08:58:14;5.65;;;4.10;;
6823;SDS011;58633;49.470;11.004;2023-07-09T09:00:50;7.25;;;3.60;;
6823;SDS011;58633;49.470;11.004;2023-07-09T09:05:54;5.07;;;3.42;;
6823;SDS011;58633;49.470;11.004;2023-07-09T09:08:27;5.45;;;3.22;;
6823;SDS011;58633;49.470;11.004;2023-07-09T09:13:31;7.20;;;3.72;;
6823;SDS011;58633;49.470;11.004;2023-07-09T09:16:02;5.88;;;3.63;;
6823;SDS011;58633;49.470;11.004;2023-07-09T09:18:37;5.47;;;3.50;;
6823;SDS011;58633;49.470;11.004;2023-07-09T09:21:11;4.40;;;3.17;;
6823;SDS011;58633;49.470;11.004;2023-07-09T09:23:49;4.75;;;3.22;;
6823;SDS011;58633;49.470;11.004;2023-07-09T09:28:49;6.53;;;3.25;;
6823;SDS011;58633;49.470;11.004;2023-07-09T09:31:15;3.35;;;3.05;;
6823;SDS011;58633;49.470;11.004;2023-07-09T09:33:44;7.38;;;3.50;;
6823;SDS011;58633;49.470;11.004;2023-07-09T09:36:24;8.90;;;3.72;;
6823;SDS011;58633;49.470;11.004;2023-07-09T09:38:51;4.88;;;3.15;;
6823;SDS011;58633;49.470;11.004;2023-07-09T09:41:18;5.13;;;3.75;;
6823;SDS011;58633;49.470;11.004;2023-07-09T09:43:51;5.65;;;3.53;;
6823;SDS011;58633;49.470;11.004;2023-07-09T09:46:19;6.07;;;3.90;;
6823;SDS011;58633;49.470;11.004;2023-07-09T09:48:47;6.28;;;3.97;;
6823;SDS011;58633;49.470;11.004;2023-07-09T09:51:16;5.07;;;3.78;;
6823;SDS011;58633;49.470;11.004;2023-07-09T09:53:50;5.18;;;3.35;;
6823;SDS011;58633;49.470;11.004;2023-07-09T09:56:26;4.00;;;3.42;;
6823;SDS011;58633;49.470;11.004;2023-07-09T09:58:58;6.43;;;3.53;;
6823;SDS011;58633;49.470;11.004;2023-07-09T10:01:26;5.35;;;3.67;;
6823;SDS011;58633;49.470;11.004;2023-07-09T10:03:57;4.22;;;3.20;;
6823;SDS011;58633;49.470;11.004;2023-07-09T10:12:04;5.22;;;4.20;;
6823;SDS011;58633;49.470;11.004;2023-07-09T10:17:33;5.43;;;3.65;;
6823;SDS011;58633;49.470;11.004;2023-07-09T10:22:57;4.65;;;3.25;;
6823;SDS011;58633;49.470;11.004;2023-07-09T10:33:55;6.78;;;3.90;;
6823;SDS011;58633;49.470;11.004;2023-07-09T10:36:42;5.70;;;4.10;;
6823;SDS011;58633;49.470;11.004;2023-07-09T10:39:31;6.15;;;3.60;;
6823;SDS011;58633;49.470;11.004;2023-07-09T10:42:00;5.80;;;3.90;;
6823;SDS011;58633;49.470;11.004;2023-07-09T10:44:34;7.72;;;3.63;;
6823;SDS011;58633;49.470;11.004;2023-07-09T10:47:05;3.75;;;3.20;;
6823;SDS011;58633;49.470;11.004;2023-07-09T10:49:41;9.00;;;5.35;;
6823;SDS011;58633;49.470;11.004;2023-07-09T10:52:13;5.07;;;3.40;;
6823;SDS011;58633;49.470;11.004;2023-07-09T10:54:57;6.78;;;3.47;;
6823;SDS011;58633;49.470;11.004;2023-07-09T10:57:29;4.13;;;3.03;;
6823;SDS011;58633;49.470;11.004;2023-07-09T11:00:04;3.70;;;3.00;;
6823;SDS011;58633;49.470;11.004;2023-07-09T11:02:36;5.57;;;3.35;;
6823;SDS011;58633;49.470;11.004;2023-07-09T11:05:04;4.15;;;3.33;;
6823;SDS011;58633;49.470;11.004;2023-07-09T11:07:33;4.47;;;3.42;;
6823;SDS011;58633;49.470;11.004;2023-07-09T11:10:17;3.53;;;3.20;;
6823;SDS011;58633;49.470;11.004;2023-07-09T11:12:53;4.20;;;3.60;;
6823;SDS011;58633;49.470;11.004;2023-07-09T11:15:34;4.05;;;3.60;;
6823;SDS011;58633;49.470;11.004;2023-07-09T11:18:04;5.57;;;3.28;;
6823;SDS011;58633;49.470;11.004;2023-07-09T11:20:33;4.30;;;3.42;;
6823;SDS011;58633;49.470;11.004;2023-07-09T11:23:02;3.63;;;3.33;;
6823;SDS011;58633;49.470;11.004;2023-07-09T11:25:46;5.43;;;3.10;;
6823;SDS011;58633;49.470;11.004;2023-07-09T11:28:13;7.45;;;3.15;;
6823;SDS011;58633;49.470;11.004;2023-07-09T11:33:33;4.07;;;3.03;;
6823;SDS011;58633;49.470;11.004;2023-07-09T11:36:11;3.83;;;2.80;;
6823;SDS011;58633;49.470;11.004;2023-07-09T11:38:44;4.00;;;3.40;;
6823;SDS011;58633;49.470;11.004;2023-07-09T11:47:11;4.55;;;3.33;;
6823;SDS011;58633;49.470;11.004;2023-07-09T11:49:57;5.75;;;3.67;;
6823;SDS011;58633;49.470;11.004;2023-07-09T11:52:30;7.65;;;3.72;;
6823;SDS011;58633;49.470;11.004;2023-07-09T11:57:46;3.50;;;3.20;;
6823;SDS011;58633;49.470;11.004;2023-07-09T12:00:14;5.85;;;3.28;;
6823;SDS011;58633;49.470;11.004;2023-07-09T12:02:40;3.88;;;3.47;;
6823;SDS011;58633;49.470;11.004;2023-07-09T12:05:06;4.93;;;3.85;;
6823;SDS011;58633;49.470;11.004;2023-07-09T12:07:32;4.15;;;3.33;;
6823;SDS011;58633;49.470;11.004;2023-07-09T12:09:57;4.28;;;3.30;;
6823;SDS011;58633;49.470;11.004;2023-07-09T12:12:24;4.18;;;3.35;;
6823;SDS011;58633;49.470;11.004;2023-07-09T12:14:51;5.22;;;3.58;;
6823;SDS011;58633;49.470;11.004;2023-07-09T12:17:17;4.82;;;3.10;;
6823;SDS011;58633;49.470;11.004;2023-07-09T12:19:43;5.07;;;3.60;;
6823;SDS011;58633;49.470;11.004;2023-07-09T12:22:10;4.03;;;3.50;;
6823;SDS011;58633;49.470;11.004;2023-07-09T12:24:44;4.80;;;3.13;;
6823;SDS011;58633;49.470;11.004;2023-07-09T12:27:23;3.95;;;3.10;;
6823;SDS011;58633;49.470;11.004;2023-07-09T12:29:51;5.75;;;3.13;;
6823;SDS011;58633;49.470;11.004;2023-07-09T12:32:20;3.90;;;2.88;;
6823;SDS011;58633;49.470;11.004;2023-07-09T12:34:52;6.38;;;3.20;;
6823;SDS011;58633;49.470;11.004;2023-07-09T12:37:19;3.85;;;2.95;;
6823;SDS011;58633;49.470;11.004;2023-07-09T12:39:47;4.35;;;3.08;;
6823;SDS011;58633;49.470;11.004;2023-07-09T12:42:18;4.80;;;3.30;;
6823;SDS011;58633;49.470;11.004;2023-07-09T12:44:45;4.40;;;3.22;;
6823;SDS011;58633;49.470;11.004;2023-07-09T12:47:14;4.20;;;3.20;;
6823;SDS011;58633;49.470;11.004;2023-07-09T12:49:41;4.75;;;3.13;;
6823;SDS011;58633;49.470;11.004;2023-07-09T12:52:09;5.75;;;3.30;;
6823;SDS011;58633;49.470;11.004;2023-07-09T12:54:51;3.83;;;3.00;;
6823;SDS011;58633;49.470;11.004;2023-07-09T12:57:20;4.40;;;3.00;;
6823;SDS011;58633;49.470;11.004;2023-07-09T12:59:46;5.13;;;2.95;;
6823;SDS011;58633;49.470;11.004;2023-07-09T13:02:17;5.28;;;3.30;;
6823;SDS011;58633;49.470;11.004;2023-07-09T13:04:45;3.67;;;3.28;;
6823;SDS011;58633;49.470;11.004;2023-07-09T13:07:24;4.13;;;3.20;;
6823;SDS011;58633;49.470;11.004;2023-07-09T13:09:53;7.00;;;3.35;;
6823;SDS011;58633;49.470;11.004;2023-07-09T13:12:20;7.13;;;3.47;;
6823;SDS011;58633;49.470;11.004;2023-07-09T13:14:53;3.97;;;3.17;;
6823;SDS011;58633;49.470;11.004;2023-07-09T13:17:19;6.88;;;3.15;;
6823;SDS011;58633;49.470;11.004;2023-07-09T13:19:45;3.92;;;3.47;;
6823;SDS011;58633;49.470;11.004;2023-07-09T13:22:15;6.03;;;3.88;;
6823;SDS011;58633;49.470;11.004;2023-07-09T13:24:42;6.68;;;5.10;;
6823;SDS011;58633;49.470;11.004;2023-07-09T13:27:14;5.28;;;4.03;;
6823;SDS011;58633;49.470;11.004;2023-07-09T13:29:41;4.57;;;3.33;;
6823;SDS011;58633;49.470;11.004;2023-07-09T13:32:10;3.30;;;3.00;;
6823;SDS011;58633;49.470;11.004;2023-07-09T13:34:37;5.57;;;3.50;;
6823;SDS011;58633;49.470;11.004;2023-07-09T13:37:04;5.85;;;3.30;;
6823;SDS011;58633;49.470;11.004;2023-07-09T13:39:33;7.28;;;3.30;;
6823;SDS011;58633;49.470;11.004;2023-07-09T13:41:59;4.55;;;3.30;;
6823;SDS011;58633;49.470;11.004;2023-07-09T13:44:27;4.07;;;3.08;;
6823;SDS011;58633;49.470;11.004;2023-07-09T13:46:54;3.72;;;3.20;;
6823;SDS011;58633;49.470;11.004;2023-07-09T13:49:22;3.42;;;3.13;;
6823;SDS011;58633;49.470;11.004;2023-07-09T13:51:50;4.15;;;3.35;;
6823;SDS011;58633;49.470;11.004;2023-07-09T13:54:19;3.45;;;3.15;;
6823;SDS011;58633;49.470;11.004;2023-07-09T13:56:48;4.15;;;3.15;;
6823;SDS011;58633;49.470;11.004;2023-07-09T13:59:19;4.68;;;3.50;;
6823;SDS011;58633;49.470;11.004;2023-07-09T14:01:46;4.43;;;3.50;;
6823;SDS011;58633;49.470;11.004;2023-07-09T14:04:13;6.40;;;3.50;;
6823;SDS011;58633;49.470;11.004;2023-07-09T14:06:42;5.65;;;3.30;;
6823;SDS011;58633;49.470;11.004;2023-07-09T14:09:08;3.88;;;2.92;;
6823;SDS011;58633;49.470;11.004;2023-07-09T14:11:36;3.88;;;3.20;;
6823;SDS011;58633;49.470;11.004;2023-07-09T14:14:23;6.65;;;3.05;;
6823;SDS011;58633;49.470;11.004;2023-07-09T14:16:52;6.57;;;3.08;;
6823;SDS011;58633;49.470;11.004;2023-07-09T14:19:19;7.78;;;3.20;;
6823;SDS011;58633;49.470;11.004;2023-07-09T14:21:47;4.55;;;3.17;;
6823;SDS011;58633;49.470;11.004;2023-07-09T14:24:26;3.50;;;3.13;;
6823;SDS011;58633;49.470;11.004;2023-07-09T14:26:54;6.13;;;3.50;;
6823;SDS011;58633;49.470;11.004;2023-07-09T14:29:22;4.88;;;3.20;;
6823;SDS011;58633;49.470;11.004;2023-07-09T14:31:48;5.00;;;3.58;;
6823;SDS011;58633;49.470;11.004;2023-07-09T14:34:28;5.28;;;3.28;;
6823;SDS011;58633;49.470;11.004;2023-07-09T14:36:56;4.18;;;3.13;;
6823;SDS011;58633;49.470;11.004;2023-07-09T14:39:23;4.55;;;3.13;;
6823;SDS011;58633;49.470;11.004;2023-07-09T14:41:50;5.05;;;2.92;;
6823;SDS011;58633;49.470;11.004;2023-07-09T14:44:26;3.70;;;3.30;;
6823;SDS011;58633;49.470;11.004;2023-07-09T14:46:54;5.57;;;3.10;;
6823;SDS011;58633;49.470;11.004;2023-07-09T14:49:24;5.93;;;3.13;;
6823;SDS011;58633;49.470;11.004;2023-07-09T14:51:51;6.55;;;3.22;;
6823;SDS011;58633;49.470;11.004;2023-07-09T14:54:18;4.63;;;3.00;;
6823;SDS011;58633;49.470;11.004;2023-07-09T14:56:52;5.55;;;3.78;;
6823;SDS011;58633;49.470;11.004;2023-07-09T14:59:19;4.95;;;3.60;;
6823;SDS011;58633;49.470;11.004;2023-07-09T15:01:45;3.72;;;3.20;;
6823;SDS011;58633;49.470;11.004;2023-07-09T15:06:45;6.60;;;3.30;;
6823;SDS011;58633;49.470;11.004;2023-07-09T15:09:14;4.28;;;3.50;;
6823;SDS011;58633;49.470;11.004;2023-07-09T15:11:42;4.05;;;3.25;;
6823;SDS011;58633;49.470;11.004;2023-07-09T15:14:10;4.30;;;3.38;;
6823;SDS011;58633;49.470;11.004;2023-07-09T15:16:36;6.68;;;3.40;;
6823;SDS011;58633;49.470;11.004;2023-07-09T15:19:35;5.15;;;3.65;;
6823;SDS011;58633;49.470;11.004;2023-07-09T15:21:54;4.57;;;3.28;;
6823;SDS011;58633;49.470;11.004;2023-07-09T15:24:21;4.32;;;3.30;;
6823;SDS011;58633;49.470;11.004;2023-07-09T15:26:51;4.07;;;3.50;;
6823;SDS011;58633;49.470;11.004;2023-07-09T15:29:18;6.63;;;3.50;;
6823;SDS011;58633;49.470;11.004;2023-07-09T15:31:44;6.32;;;3.30;;
6823;SDS011;58633;49.470;11.004;2023-07-09T15:34:10;4.10;;;3.35;;